createdAt,value
2022-08-17T00:01:53.366Z,17.01
2022-08-17T00:04:40.479Z,17.85
2022-08-17T00:07:27.414Z,18.50
2022-08-17T00:10:14.493Z,17.62
2022-08-17T00:13:08.811Z,17.66
2022-08-17T00:15:59.824Z,17.22
2022-08-17T00:19:01.979Z,17.03
2022-08-17T00:22:32.989Z,16.54
2022-08-17T00:25:09.180Z,16.10
2022-08-17T00:27:56.413Z,16.29
2022-08-17T00:30:51.074Z,16.15
2022-08-17T00:33:42.515Z,16.19
2022-08-17T00:36:29.939Z,16.40
2022-08-17T00:39:16.906Z,16.67
2022-08-17T00:42:14.076Z,16.22
2022-08-17T00:45:01.358Z,15.95
2022-08-17T00:47:49.531Z,16.27
2022-08-17T00:50:37.162Z,16.73
2022-08-17T00:53:27.181Z,17.06
2022-08-17T00:56:32.595Z,17.17
2022-08-17T00:59:26.011Z,17.03
2022-08-17T01:02:15.570Z,16.74
2022-08-17T01:05:02.975Z,16.54
2022-08-17T01:07:53.225Z,16.75
2022-08-17T01:11:00.582Z,16.50
2022-08-17T01:13:48.734Z,16.37
2022-08-17T01:16:40.173Z,16.22
2022-08-17T01:19:32.364Z,16.29
2022-08-17T01:22:22.527Z,16.16
2022-08-17T01:25:11.436Z,15.85
2022-08-17T01:27:58.441Z,15.78
2022-08-17T01:30:58.596Z,15.41
2022-08-17T01:33:46.377Z,16.02
2022-08-17T01:36:33.353Z,15.89
2022-08-17T01:39:37.756Z,15.72
2022-08-17T01:42:40.791Z,15.81
2022-08-17T01:45:32.220Z,15.90
2022-08-17T01:48:20.489Z,15.48
2022-08-17T01:51:07.771Z,15.86
2022-08-17T01:53:58.243Z,15.85
2022-08-17T01:56:49.869Z,15.74
2022-08-17T01:59:36.931Z,16.13
2022-08-17T02:02:30.489Z,15.55
2022-08-17T02:05:18.804Z,15.77
2022-08-17T02:08:07.436Z,15.86
2022-08-17T02:10:55.108Z,15.84
2022-08-17T02:13:45.625Z,15.70
2022-08-17T02:16:37.549Z,15.50
2022-08-17T02:19:25.417Z,15.77
2022-08-17T02:22:12.708Z,15.99
2022-08-17T02:25:02.339Z,15.82
2022-08-17T02:27:49.476Z,15.93
2022-08-17T02:31:02.028Z,15.41
2022-08-17T02:33:44.085Z,15.78
2022-08-17T02:36:31.313Z,15.91
2022-08-17T02:39:18.741Z,15.93
2022-08-17T02:42:05.777Z,15.79
2022-08-17T02:44:52.748Z,15.47
2022-08-17T02:47:40.447Z,14.92
2022-08-17T02:50:27.492Z,14.66
2022-08-17T02:53:14.545Z,15.04
2022-08-17T02:56:01.680Z,15.25
2022-08-17T02:58:48.631Z,15.27
2022-08-17T03:01:35.761Z,14.79
2022-08-17T03:04:23.462Z,14.98
2022-08-17T03:07:10.449Z,15.00
2022-08-17T03:09:57.433Z,14.65
2022-08-17T03:12:45.315Z,14.86
2022-08-17T03:15:34.512Z,15.19
2022-08-17T03:18:25.444Z,15.21
2022-08-17T03:21:13.275Z,14.93
2022-08-17T03:24:00.318Z,14.69
2022-08-17T03:26:47.476Z,14.13
2022-08-17T03:29:34.986Z,14.15
2022-08-17T03:32:21.930Z,14.68
2022-08-17T03:35:09.649Z,15.05
2022-08-17T03:38:01.347Z,15.28
2022-08-17T03:40:58.156Z,15.45
2022-08-17T03:43:46.275Z,15.38
2022-08-17T03:46:52.006Z,15.25
2022-08-17T03:49:57.516Z,15.57
2022-08-17T03:53:03.252Z,15.56
2022-08-17T03:56:09.118Z,15.13
2022-08-17T03:58:56.142Z,14.74
2022-08-17T04:01:45.185Z,14.53
2022-08-17T04:04:32.247Z,14.60
2022-08-17T04:07:21.649Z,14.57
2022-08-17T04:10:08.805Z,15.08
2022-08-17T04:12:58.217Z,14.97
2022-08-17T04:15:47.187Z,14.77
2022-08-17T04:18:34.225Z,14.88
2022-08-17T04:21:22.337Z,15.11
2022-08-17T04:24:09.454Z,14.78
2022-08-17T04:26:56.407Z,15.02
2022-08-17T04:29:54.779Z,15.23
2022-08-17T04:33:08.822Z,15.21
2022-08-17T04:35:58.732Z,14.80
2022-08-17T04:38:46.757Z,14.48
2022-08-17T04:41:52.134Z,14.54
2022-08-17T04:44:39.164Z,14.90
2022-08-17T04:47:26.176Z,14.89
2022-08-17T04:50:13.215Z,14.91
2022-08-17T04:53:00.646Z,15.30
2022-08-17T04:55:51.397Z,15.38
2022-08-17T04:58:38.835Z,15.28
2022-08-17T05:01:28.929Z,15.60
2022-08-17T05:04:25.158Z,15.88
2022-08-17T05:07:24.657Z,16.34
2022-08-17T05:10:13.619Z,16.38
2022-08-17T05:13:28.052Z,16.22
2022-08-17T05:16:14.983Z,15.52
2022-08-17T05:19:02.732Z,16.19
2022-08-17T05:21:51.915Z,16.17
2022-08-17T05:24:43.612Z,16.55
2022-08-17T05:27:40.602Z,15.96
2022-08-17T05:30:29.027Z,16.50
2022-08-17T05:33:19.407Z,17.08
2022-08-17T05:36:12.080Z,17.90
2022-08-17T05:39:19.013Z,18.68
2022-08-17T05:42:06.364Z,18.84
2022-08-17T05:44:56.691Z,19.17
2022-08-17T05:47:46.219Z,20.90
2022-08-17T05:50:48.637Z,19.77
2022-08-17T05:53:36.113Z,19.73
2022-08-17T05:56:59.889Z,18.90
2022-08-17T05:59:53.037Z,18.89
2022-08-17T06:03:34.373Z,18.13
2022-08-17T06:06:31.795Z,17.97
2022-08-17T06:09:38.446Z,18.25
2022-08-17T06:12:40.109Z,19.30
2022-08-17T06:15:55.305Z,20.16
2022-08-17T06:18:46.157Z,20.61
2022-08-17T06:21:38.107Z,22.19
2022-08-17T06:25:01.118Z,22.55
2022-08-17T06:28:01.724Z,22.64
2022-08-17T06:30:59.676Z,22.54
2022-08-17T06:33:49.156Z,22.82
2022-08-17T06:36:40.278Z,24.14
2022-08-17T06:39:48.573Z,24.00
2022-08-17T06:43:14.283Z,23.49
2022-08-17T06:46:25.621Z,24.35
2022-08-17T06:49:12.688Z,23.06
2022-08-17T06:52:12.338Z,23.42
2022-08-17T06:55:26.546Z,23.41
2022-08-17T06:58:20.818Z,22.93
2022-08-17T07:01:24.956Z,23.90
2022-08-17T07:04:26.359Z,22.95
2022-08-17T07:07:32.602Z,24.19
2022-08-17T07:10:20.390Z,24.94
2022-08-17T07:13:51.589Z,27.04
2022-08-17T07:16:46.674Z,23.29
2022-08-17T07:19:38.247Z,23.82
2022-08-17T07:22:55.263Z,24.06
2022-08-17T07:25:45.347Z,26.24
2022-08-17T07:28:33.908Z,25.57
2022-08-17T07:31:21.169Z,24.02
2022-08-17T07:34:14.621Z,25.16
2022-08-17T07:37:05.196Z,25.28
2022-08-17T07:39:59.705Z,25.88
2022-08-17T07:43:21.904Z,27.19
2022-08-17T07:46:31.574Z,27.84
2022-08-17T07:49:24.784Z,26.08
2022-08-17T07:52:51.743Z,26.84
2022-08-17T07:55:41.535Z,26.93
2022-08-17T07:58:28.659Z,29.11
2022-08-17T08:01:15.846Z,28.99
2022-08-17T08:08:29.220Z,24.34
2022-08-17T08:11:33.806Z,25.26
2022-08-17T08:14:28.512Z,26.00
2022-08-17T08:17:24.893Z,26.61
2022-08-17T08:20:52.763Z,26.96
2022-08-17T08:23:52.337Z,26.76
2022-08-17T08:27:07.209Z,24.80
2022-08-17T08:29:57.736Z,25.46
2022-08-17T08:33:04.287Z,28.33
2022-08-17T08:36:12.306Z,27.63
2022-08-17T08:39:24.820Z,28.69
2022-08-17T08:42:23.499Z,29.79
2022-08-17T08:45:40.212Z,29.23
2022-08-17T08:49:01.788Z,32.37
2022-08-17T08:52:02.958Z,29.45
2022-08-17T08:55:02.062Z,30.52
2022-08-17T08:58:00.022Z,29.81
2022-08-17T09:00:54.522Z,27.94
2022-08-17T09:04:24.807Z,27.09
2022-08-17T09:07:29.427Z,26.98
2022-08-17T09:10:19.650Z,28.15
2022-08-17T09:13:22.187Z,26.52
2022-08-17T09:16:17.314Z,27.58
2022-08-17T09:19:08.744Z,29.73
2022-08-17T09:22:03.485Z,28.52
2022-08-17T09:24:57.305Z,29.42
2022-08-17T09:27:50.543Z,29.11
2022-08-17T09:30:45.581Z,29.33
2022-08-17T09:33:39.998Z,28.47
2022-08-17T09:36:42.012Z,29.86
2022-08-17T09:39:41.974Z,28.59
2022-08-17T09:42:35.430Z,29.10
2022-08-17T09:45:32.514Z,29.82
2022-08-17T09:49:02.653Z,28.86
2022-08-17T09:51:55.536Z,28.66
2022-08-17T09:54:44.699Z,26.06
2022-08-17T09:57:42.415Z,27.86
2022-08-17T10:00:35.565Z,27.15
2022-08-17T10:03:38.302Z,26.98
2022-08-17T10:06:35.524Z,27.04
2022-08-17T10:09:37.031Z,29.03
2022-08-17T10:12:33.439Z,30.59
2022-08-17T10:15:54.124Z,26.72
2022-08-17T10:19:05.074Z,28.33
2022-08-17T10:22:34.799Z,29.86
2022-08-17T10:25:54.778Z,31.27
2022-08-17T10:29:01.223Z,31.65
2022-08-17T10:31:54.991Z,31.24
2022-08-17T10:35:17.454Z,30.61
2022-08-17T10:38:24.401Z,31.74
2022-08-17T10:41:20.883Z,31.99
2022-08-17T10:44:56.370Z,34.16
2022-08-17T10:48:07.243Z,32.22
2022-08-17T10:51:00.149Z,33.73
2022-08-17T10:53:48.559Z,30.95
2022-08-17T10:56:48.117Z,31.73
2022-08-17T10:59:35.081Z,30.65
2022-08-17T11:02:38.920Z,28.76
2022-08-17T11:05:42.901Z,30.88
2022-08-17T11:08:37.734Z,31.60
2022-08-17T11:11:47.968Z,33.53
2022-08-17T11:14:53.237Z,33.29
2022-08-17T11:17:52.105Z,32.15
2022-08-17T11:20:47.779Z,30.21
2022-08-17T11:24:10.538Z,27.95
2022-08-17T11:27:07.718Z,27.84
2022-08-17T11:30:11.337Z,29.28
2022-08-17T11:32:59.351Z,27.80
2022-08-17T11:35:54.444Z,28.00
2022-08-17T11:39:11.783Z,27.06
2022-08-17T11:42:09.870Z,28.14
2022-08-17T11:45:31.714Z,27.69
2022-08-17T11:49:04.780Z,26.98
2022-08-17T11:52:01.325Z,27.06
2022-08-17T11:54:49.062Z,26.98
2022-08-17T11:57:42.201Z,27.60
2022-08-17T12:00:57.265Z,26.59
2022-08-17T12:03:54.003Z,26.39
2022-08-17T12:06:50.153Z,26.91
2022-08-17T12:09:45.708Z,26.57
2022-08-17T12:12:35.824Z,27.09
2022-08-17T12:15:31.304Z,26.97
2022-08-17T12:18:35.845Z,27.00
2022-08-17T12:21:31.841Z,27.29
2022-08-17T12:24:56.790Z,27.97
2022-08-17T12:28:05.026Z,28.63
2022-08-17T12:30:59.761Z,28.87
2022-08-17T12:33:47.910Z,29.51
2022-08-17T12:36:35.481Z,29.13
2022-08-17T12:39:24.959Z,30.99
2022-08-17T12:42:26.113Z,29.46
2022-08-17T12:45:29.349Z,31.03
2022-08-17T12:48:23.522Z,30.62
2022-08-17T12:51:12.340Z,29.01
2022-08-17T12:53:59.375Z,31.06
2022-08-17T12:56:47.670Z,30.30
2022-08-17T12:59:39.749Z,32.41
2022-08-17T13:02:31.867Z,32.68
2022-08-17T13:05:27.734Z,31.61
2022-08-17T13:08:19.354Z,31.29
2022-08-17T13:11:19.331Z,33.85
2022-08-17T13:14:10.409Z,34.57
2022-08-17T13:17:00.299Z,36.70
2022-08-17T13:19:50.697Z,34.44
2022-08-17T13:22:39.043Z,35.18
2022-08-17T13:25:27.768Z,31.72
2022-08-17T13:28:35.717Z,32.63
2022-08-17T13:31:28.014Z,34.65
2022-08-17T13:34:24.052Z,35.30
2022-08-17T13:37:41.430Z,32.00
2022-08-17T13:40:35.939Z,32.06
2022-08-17T13:43:46.933Z,34.64
2022-08-17T13:46:34.191Z,34.64
2022-08-17T13:49:21.933Z,34.63
2022-08-17T13:52:32.043Z,35.42
2022-08-17T13:55:22.537Z,34.73
2022-08-17T13:58:09.545Z,34.16
2022-08-17T14:00:56.582Z,34.37
2022-08-17T14:03:44.283Z,33.46
2022-08-17T14:06:54.004Z,31.62
2022-08-17T14:10:05.143Z,33.80
2022-08-17T14:12:52.948Z,33.39
2022-08-17T14:15:55.486Z,33.42
2022-08-17T14:18:56.802Z,33.31
2022-08-17T14:21:46.520Z,34.34
2022-08-17T14:24:41.285Z,34.59
2022-08-17T14:27:52.496Z,34.06
2022-08-17T14:30:41.325Z,32.79
2022-08-17T14:33:29.037Z,30.66
2022-08-17T14:36:16.036Z,32.62
2022-08-17T14:39:03.120Z,29.92
2022-08-17T14:41:50.397Z,30.43
2022-08-17T14:44:40.302Z,31.41
2022-08-17T14:47:27.427Z,30.92
2022-08-17T14:50:19.638Z,30.94
2022-08-17T14:53:09.506Z,31.96
2022-08-17T14:55:56.464Z,33.27
2022-08-17T14:58:43.549Z,33.10
2022-08-17T15:01:30.708Z,32.72
2022-08-17T15:04:18.739Z,31.77
2022-08-17T15:07:06.584Z,30.83
2022-08-17T15:09:53.565Z,29.95
2022-08-17T15:12:41.429Z,30.41
2022-08-17T15:15:29.090Z,29.49
2022-08-17T15:18:16.669Z,29.08
2022-08-17T15:21:05.532Z,29.41
2022-08-17T15:23:52.573Z,30.61
2022-08-17T15:26:40.241Z,29.28
2022-08-17T15:29:27.242Z,28.63
2022-08-17T15:32:32.410Z,29.39
2022-08-17T15:35:25.194Z,29.28
2022-08-17T15:38:15.157Z,28.80
2022-08-17T15:41:02.840Z,28.45
2022-08-17T15:43:52.960Z,29.06
2022-08-17T15:46:40.037Z,28.57
2022-08-17T15:49:28.471Z,28.08
2022-08-17T15:52:21.588Z,28.62
2022-08-17T15:55:14.816Z,28.57
2022-08-17T15:58:01.956Z,28.70
2022-08-17T16:00:53.310Z,29.29
2022-08-17T16:04:06.764Z,28.97
2022-08-17T16:06:54.335Z,29.12
2022-08-17T16:09:42.114Z,28.45
2022-08-17T16:12:29.406Z,28.56
2022-08-17T16:15:18.088Z,29.13
2022-08-17T16:18:05.377Z,28.86
2022-08-17T16:20:53.313Z,28.32
2022-08-17T16:23:40.281Z,28.49
2022-08-17T16:26:28.585Z,28.25
2022-08-17T16:29:15.594Z,28.22
2022-08-17T16:32:15.995Z,28.45
2022-08-17T16:35:10.862Z,28.38
2022-08-17T16:37:58.891Z,28.46
2022-08-17T16:40:45.868Z,28.28
2022-08-17T16:43:34.102Z,28.22
2022-08-17T16:46:21.037Z,28.10
2022-08-17T16:49:09.050Z,27.70
2022-08-17T16:52:03.102Z,27.58
2022-08-17T16:54:50.461Z,27.57
2022-08-17T16:57:37.623Z,27.59
2022-08-17T17:00:36.164Z,27.42
2022-08-17T17:03:26.200Z,27.44
2022-08-17T17:06:58.641Z,27.38
2022-08-17T17:09:48.952Z,27.12
2022-08-17T17:13:01.910Z,27.21
2022-08-17T17:16:00.232Z,27.20
2022-08-17T17:19:10.537Z,27.31
2022-08-17T17:22:12.937Z,27.23
2022-08-17T17:25:31.589Z,26.99
2022-08-17T17:28:43.281Z,26.80
2022-08-17T17:31:39.477Z,26.74
2022-08-17T17:34:32.564Z,26.44
2022-08-17T17:37:29.068Z,26.52
2022-08-17T17:40:23.171Z,26.52
2022-08-17T17:43:36.825Z,26.33
2022-08-17T17:46:29.138Z,26.29
2022-08-17T17:49:18.337Z,26.20
2022-08-17T17:52:18.406Z,25.78
2022-08-17T17:55:21.466Z,25.88
2022-08-17T17:58:43.955Z,25.89
2022-08-17T18:01:57.385Z,25.87
2022-08-17T18:04:57.047Z,25.93
2022-08-17T18:07:54.406Z,25.78
2022-08-17T18:10:57.373Z,25.60
2022-08-17T18:13:56.439Z,25.54
2022-08-17T18:16:45.000Z,25.44
2022-08-17T18:19:32.663Z,24.98
2022-08-17T18:22:22.169Z,25.16
2022-08-17T18:25:44.541Z,25.06
2022-08-17T18:28:41.107Z,25.04
2022-08-17T18:31:28.762Z,24.86
2022-08-17T18:34:45.753Z,24.89
2022-08-17T18:37:43.235Z,24.79
2022-08-17T18:40:34.948Z,24.91
2022-08-17T18:43:28.627Z,24.98
2022-08-17T18:46:36.589Z,24.83
2022-08-17T18:49:29.073Z,24.77
2022-08-17T18:52:23.219Z,24.79
2022-08-17T18:55:20.654Z,24.57
2022-08-17T18:58:20.967Z,24.41
2022-08-17T19:01:19.799Z,24.48
2022-08-17T19:04:13.436Z,24.29
2022-08-17T19:07:23.870Z,24.19
2022-08-17T19:10:45.976Z,24.42
2022-08-17T19:13:57.706Z,24.45
2022-08-17T19:17:11.692Z,24.64
2022-08-17T19:20:19.779Z,24.70
2022-08-17T19:23:35.581Z,24.61
2022-08-17T19:26:53.885Z,24.63
2022-08-17T19:30:00.086Z,24.64
2022-08-17T19:32:51.113Z,24.54
2022-08-17T19:35:59.012Z,24.69
2022-08-17T19:39:16.947Z,24.67
2022-08-17T19:42:06.949Z,24.71
2022-08-17T19:45:32.740Z,24.41
2022-08-17T19:48:40.323Z,24.72
2022-08-17T19:52:05.043Z,24.37
2022-08-17T19:55:04.732Z,24.46
2022-08-17T19:58:00.662Z,23.94
2022-08-17T20:00:51.568Z,23.39
2022-08-17T20:04:02.081Z,23.29
2022-08-17T20:06:49.623Z,22.90
2022-08-17T20:10:13.020Z,22.38
2022-08-17T20:13:07.118Z,21.88
2022-08-17T20:15:54.298Z,22.14
2022-08-17T20:18:58.963Z,22.15
2022-08-17T20:21:55.054Z,22.06
2022-08-17T20:24:54.471Z,21.84
2022-08-17T20:27:53.821Z,22.40
2022-08-17T20:30:53.275Z,22.35
2022-08-17T20:33:40.255Z,22.45
2022-08-17T20:36:28.494Z,22.01
2022-08-17T20:39:40.979Z,21.45
2022-08-17T20:42:31.047Z,20.31
2022-08-17T20:45:41.178Z,19.63
2022-08-17T20:48:38.407Z,19.33
2022-08-17T20:51:31.625Z,19.21
2022-08-17T20:54:18.531Z,18.87
2022-08-17T20:57:13.826Z,18.88
2022-08-17T21:00:16.477Z,18.98
2022-08-17T21:03:22.709Z,19.30
2022-08-17T21:06:17.537Z,18.89
2022-08-17T21:09:31.853Z,18.36
2022-08-17T21:12:42.581Z,18.39
2022-08-17T21:15:57.288Z,18.62
2022-08-17T21:19:19.201Z,18.88
2022-08-17T21:22:28.536Z,19.17
2022-08-17T21:25:32.368Z,19.26
2022-08-17T21:29:00.370Z,19.37
2022-08-17T21:32:09.627Z,19.47
2022-08-17T21:35:24.909Z,19.02
2022-08-17T21:38:15.702Z,19.42
2022-08-17T21:41:02.749Z,19.38
2022-08-17T21:43:52.287Z,18.58
2022-08-17T21:46:43.001Z,17.84
2022-08-17T21:49:37.850Z,17.68
2022-08-17T21:52:27.185Z,17.47
2022-08-17T21:55:28.280Z,17.57
2022-08-17T21:58:32.467Z,17.69
2022-08-17T22:01:50.469Z,17.78
2022-08-17T22:04:41.355Z,17.58
2022-08-17T22:07:43.288Z,17.62
2022-08-17T22:10:35.097Z,17.58
2022-08-17T22:13:29.806Z,17.71
2022-08-17T22:16:28.507Z,17.82
2022-08-17T22:19:18.203Z,17.47
2022-08-17T22:22:11.179Z,17.34
2022-08-17T22:25:01.485Z,17.49
2022-08-17T22:27:58.256Z,17.94
2022-08-17T22:31:14.651Z,18.11
2022-08-17T22:34:04.698Z,17.61
2022-08-17T22:37:21.597Z,17.18
2022-08-17T22:40:26.718Z,17.19
2022-08-17T22:43:13.776Z,17.23
2022-08-17T22:46:00.742Z,17.13
2022-08-17T22:48:54.919Z,17.09
2022-08-17T22:51:42.675Z,17.17
2022-08-17T22:54:48.514Z,17.11
2022-08-17T22:57:54.634Z,17.28
2022-08-17T23:00:47.898Z,17.34
2022-08-17T23:03:54.005Z,17.31
2022-08-17T23:06:44.221Z,17.25
2022-08-17T23:09:31.189Z,17.64
2022-08-17T23:12:26.543Z,17.95
2022-08-17T23:15:17.466Z,18.23
2022-08-17T23:18:05.203Z,18.30
2022-08-17T23:20:52.199Z,18.09
2022-08-17T23:23:39.311Z,17.97
2022-08-17T23:26:27.827Z,17.86
2022-08-17T23:29:14.914Z,17.69
2022-08-17T23:32:04.781Z,17.75
2022-08-17T23:34:52.034Z,17.94
2022-08-17T23:37:40.652Z,17.46
2022-08-17T23:40:30.351Z,17.28
2022-08-17T23:43:24.252Z,17.54
2022-08-17T23:46:12.885Z,17.71
2022-08-17T23:49:00.502Z,17.57
2022-08-17T23:51:48.864Z,17.36
2022-08-17T23:54:43.893Z,17.23
2022-08-17T23:57:33.155Z,17.23
